sensor_id;sensor_type;location;lat;lon;timestamp;temperature;humidity
75380;HTU21D;65641;44.714;37.756;2023-03-14T00:00:38;8.06;70.35
75380;HTU21D;65641;44.714;37.756;2023-03-14T00:01:44;8.06;70.32
75380;HTU21D;65641;44.714;37.756;2023-03-14T00:02:52;8.06;70.31
75380;HTU21D;65641;44.714;37.756;2023-03-14T00:03:56;8.05;70.33
75380;HTU21D;65641;44.714;37.756;2023-03-14T00:05:18;8.06;70.27
75380;HTU21D;65641;44.714;37.756;2023-03-14T00:06:41;8.05;70.34
75380;HTU21D;65641;44.714;37.756;2023-03-14T00:08:05;8.05;70.34
75380;HTU21D;65641;44.714;37.756;2023-03-14T00:09:27;8.04;70.38
75380;HTU21D;65641;44.714;37.756;2023-03-14T00:10:57;8.05;70.37
75380;HTU21D;65641;44.714;37.756;2023-03-14T00:12:23;8.05;70.35
75380;HTU21D;65641;44.714;37.756;2023-03-14T00:13:50;8.04;70.29
75380;HTU21D;65641;44.714;37.756;2023-03-14T00:15:12;8.03;70.23
75380;HTU21D;65641;44.714;37.756;2023-03-14T00:16:35;8.03;70.23
75380;HTU21D;65641;44.714;37.756;2023-03-14T00:17:57;8.02;70.23
75380;HTU21D;65641;44.714;37.756;2023-03-14T00:19:20;8.03;70.28
75380;HTU21D;65641;44.714;37.756;2023-03-14T00:20:43;8.03;70.29
75380;HTU21D;65641;44.714;37.756;2023-03-14T00:22:05;8.02;70.30
75380;HTU21D;65641;44.714;37.756;2023-03-14T00:23:29;8.02;70.28
75380;HTU21D;65641;44.714;37.756;2023-03-14T00:24:52;8.02;70.29
75380;HTU21D;65641;44.714;37.756;2023-03-14T00:26:18;8.01;70.25
75380;HTU21D;65641;44.714;37.756;2023-03-14T00:27:41;8.00;70.19
75380;HTU21D;65641;44.714;37.756;2023-03-14T00:29:06;8.00;70.18
75380;HTU21D;65641;44.714;37.756;2023-03-14T00:30:27;7.99;70.20
75380;HTU21D;65641;44.714;37.756;2023-03-14T00:31:52;8.00;70.17
75380;HTU21D;65641;44.714;37.756;2023-03-14T00:33:15;7.99;70.14
75380;HTU21D;65641;44.714;37.756;2023-03-14T00:34:36;7.98;70.10
75380;HTU21D;65641;44.714;37.756;2023-03-14T00:36:02;7.96;70.08
75380;HTU21D;65641;44.714;37.756;2023-03-14T00:37:24;7.94;70.05
75380;HTU21D;65641;44.714;37.756;2023-03-14T00:38:48;7.94;69.99
75380;HTU21D;65641;44.714;37.756;2023-03-14T00:40:10;7.93;69.99
75380;HTU21D;65641;44.714;37.756;2023-03-14T00:41:32;7.92;70.05
75380;HTU21D;65641;44.714;37.756;2023-03-14T00:42:56;7.90;70.07
75380;HTU21D;65641;44.714;37.756;2023-03-14T00:44:19;7.91;70.07
75380;HTU21D;65641;44.714;37.756;2023-03-14T00:45:41;7.90;70.05
75380;HTU21D;65641;44.714;37.756;2023-03-14T00:47:03;7.89;70.10
75380;HTU21D;65641;44.714;37.756;2023-03-14T00:48:25;7.88;70.01
75380;HTU21D;65641;44.714;37.756;2023-03-14T00:49:46;7.88;70.03
75380;HTU21D;65641;44.714;37.756;2023-03-14T00:51:09;7.86;70.05
75380;HTU21D;65641;44.714;37.756;2023-03-14T00:52:44;7.84;70.06
75380;HTU21D;65641;44.714;37.756;2023-03-14T00:53:46;7.84;70.07
75380;HTU21D;65641;44.714;37.756;2023-03-14T00:54:52;7.84;70.02
75380;HTU21D;65641;44.714;37.756;2023-03-14T00:55:55;7.83;70.02
75380;HTU21D;65641;44.714;37.756;2023-03-14T00:56:59;7.82;70.03
75380;HTU21D;65641;44.714;37.756;2023-03-14T00:58:03;7.81;70.03
75380;HTU21D;65641;44.714;37.756;2023-03-14T00:59:06;7.79;70.05
75380;HTU21D;65641;44.714;37.756;2023-03-14T01:00:10;7.78;70.10
75380;HTU21D;65641;44.714;37.756;2023-03-14T01:01:18;7.78;70.13
75380;HTU21D;65641;44.714;37.756;2023-03-14T01:02:21;7.77;70.14
75380;HTU21D;65641;44.714;37.756;2023-03-14T01:03:26;7.77;70.18
75380;HTU21D;65641;44.714;37.756;2023-03-14T01:04:29;7.75;70.18
75380;HTU21D;65641;44.714;37.756;2023-03-14T01:05:34;7.75;70.23
75380;HTU21D;65641;44.714;37.756;2023-03-14T01:06:37;7.74;70.29
75380;HTU21D;65641;44.714;37.756;2023-03-14T01:07:40;7.75;70.35
75380;HTU21D;65641;44.714;37.756;2023-03-14T01:08:44;7.73;70.37
75380;HTU21D;65641;44.714;37.756;2023-03-14T01:09:51;7.73;70.39
75380;HTU21D;65641;44.714;37.756;2023-03-14T01:10:58;7.74;70.35
75380;HTU21D;65641;44.714;37.756;2023-03-14T01:12:03;7.72;70.35
75380;HTU21D;65641;44.714;37.756;2023-03-14T01:13:08;7.70;70.37
75380;HTU21D;65641;44.714;37.756;2023-03-14T01:14:12;7.70;70.29
75380;HTU21D;65641;44.714;37.756;2023-03-14T01:15:16;7.69;70.31
75380;HTU21D;65641;44.714;37.756;2023-03-14T01:16:22;7.70;70.34
75380;HTU21D;65641;44.714;37.756;2023-03-14T01:17:46;7.69;70.32
75380;HTU21D;65641;44.714;37.756;2023-03-14T01:19:07;7.68;70.33
75380;HTU21D;65641;44.714;37.756;2023-03-14T01:20:31;7.67;70.24
75380;HTU21D;65641;44.714;37.756;2023-03-14T01:21:53;7.65;70.22
75380;HTU21D;65641;44.714;37.756;2023-03-14T01:23:14;7.64;70.19
75380;HTU21D;65641;44.714;37.756;2023-03-14T01:24:25;7.65;70.22
75380;HTU21D;65641;44.714;37.756;2023-03-14T01:25:28;7.63;70.26
75380;HTU21D;65641;44.714;37.756;2023-03-14T01:26:33;7.63;70.26
75380;HTU21D;65641;44.714;37.756;2023-03-14T01:27:40;7.63;70.20
75380;HTU21D;65641;44.714;37.756;2023-03-14T01:28:45;7.61;70.19
75380;HTU21D;65641;44.714;37.756;2023-03-14T01:29:51;7.61;70.21
75380;HTU21D;65641;44.714;37.756;2023-03-14T01:30:56;7.60;70.19
75380;HTU21D;65641;44.714;37.756;2023-03-14T01:32:05;7.60;70.20
75380;HTU21D;65641;44.714;37.756;2023-03-14T01:33:10;7.59;70.16
75380;HTU21D;65641;44.714;37.756;2023-03-14T01:34:32;7.57;70.19
75380;HTU21D;65641;44.714;37.756;2023-03-14T01:35:56;7.59;70.16
75380;HTU21D;65641;44.714;37.756;2023-03-14T01:37:18;7.56;70.08
75380;HTU21D;65641;44.714;37.756;2023-03-14T01:38:32;7.55;70.09
75380;HTU21D;65641;44.714;37.756;2023-03-14T01:39:46;7.54;70.11
75380;HTU21D;65641;44.714;37.756;2023-03-14T01:40:50;7.55;70.13
75380;HTU21D;65641;44.714;37.756;2023-03-14T01:41:54;7.54;70.16
75380;HTU21D;65641;44.714;37.756;2023-03-14T01:43:12;7.53;70.16
75380;HTU21D;65641;44.714;37.756;2023-03-14T01:44:15;7.54;70.21
75380;HTU21D;65641;44.714;37.756;2023-03-14T01:47:18;7.52;70.19
75380;HTU21D;65641;44.714;37.756;2023-03-14T01:48:23;7.52;70.19
75380;HTU21D;65641;44.714;37.756;2023-03-14T01:49:29;7.52;70.21
75380;HTU21D;65641;44.714;37.756;2023-03-14T01:50:40;7.52;70.20
75380;HTU21D;65641;44.714;37.756;2023-03-14T01:52:50;7.49;70.13
75380;HTU21D;65641;44.714;37.756;2023-03-14T01:54:05;7.50;70.20
75380;HTU21D;65641;44.714;37.756;2023-03-14T01:55:14;7.50;70.16
75380;HTU21D;65641;44.714;37.756;2023-03-14T01:56:20;7.50;70.10
75380;HTU21D;65641;44.714;37.756;2023-03-14T01:57:30;7.50;70.15
75380;HTU21D;65641;44.714;37.756;2023-03-14T01:58:37;7.49;70.15
75380;HTU21D;65641;44.714;37.756;2023-03-14T01:59:51;7.49;70.14
75380;HTU21D;65641;44.714;37.756;2023-03-14T02:00:57;7.50;70.11
75380;HTU21D;65641;44.714;37.756;2023-03-14T02:02:02;7.50;70.08
75380;HTU21D;65641;44.714;37.756;2023-03-14T02:03:14;7.49;70.06
75380;HTU21D;65641;44.714;37.756;2023-03-14T02:04:21;7.50;70.07
75380;HTU21D;65641;44.714;37.756;2023-03-14T02:05:34;7.49;70.02
75380;HTU21D;65641;44.714;37.756;2023-03-14T02:08:31;7.50;70.03
75380;HTU21D;65641;44.714;37.756;2023-03-14T02:09:40;7.50;70.03
75380;HTU21D;65641;44.714;37.756;2023-03-14T02:10:50;7.50;70.00
75380;HTU21D;65641;44.714;37.756;2023-03-14T02:12:21;7.52;69.97
75380;HTU21D;65641;44.714;37.756;2023-03-14T02:13:39;7.53;69.98
75380;HTU21D;65641;44.714;37.756;2023-03-14T02:15:05;7.55;69.98
75380;HTU21D;65641;44.714;37.756;2023-03-14T02:16:35;7.55;70.03
75380;HTU21D;65641;44.714;37.756;2023-03-14T02:18:04;7.57;70.03
75380;HTU21D;65641;44.714;37.756;2023-03-14T02:19:18;7.57;70.02
75380;HTU21D;65641;44.714;37.756;2023-03-14T02:22:12;7.58;70.03
75380;HTU21D;65641;44.714;37.756;2023-03-14T02:23:52;7.61;69.98
75380;HTU21D;65641;44.714;37.756;2023-03-14T02:25:15;7.60;69.85
75380;HTU21D;65641;44.714;37.756;2023-03-14T02:26:34;7.61;69.82
75380;HTU21D;65641;44.714;37.756;2023-03-14T02:27:42;7.63;69.78
75380;HTU21D;65641;44.714;37.756;2023-03-14T02:28:49;7.62;69.74
75380;HTU21D;65641;44.714;37.756;2023-03-14T02:30:04;7.63;69.71
75380;HTU21D;65641;44.714;37.756;2023-03-14T02:31:09;7.63;69.67
75380;HTU21D;65641;44.714;37.756;2023-03-14T02:32:14;7.65;69.64
75380;HTU21D;65641;44.714;37.756;2023-03-14T02:33:22;7.64;69.61
75380;HTU21D;65641;44.714;37.756;2023-03-14T02:34:26;7.65;69.54
75380;HTU21D;65641;44.714;37.756;2023-03-14T02:35:42;7.65;69.51
75380;HTU21D;65641;44.714;37.756;2023-03-14T02:36:48;7.65;69.49
75380;HTU21D;65641;44.714;37.756;2023-03-14T02:37:57;7.67;69.43
75380;HTU21D;65641;44.714;37.756;2023-03-14T02:39:19;7.67;69.42
75380;HTU21D;65641;44.714;37.756;2023-03-14T02:40:26;7.67;69.42
75380;HTU21D;65641;44.714;37.756;2023-03-14T02:41:31;7.67;69.42
75380;HTU21D;65641;44.714;37.756;2023-03-14T02:42:39;7.67;69.42
75380;HTU21D;65641;44.714;37.756;2023-03-14T02:43:44;7.67;69.42
75380;HTU21D;65641;44.714;37.756;2023-03-14T02:44:53;7.68;69.46
75380;HTU21D;65641;44.714;37.756;2023-03-14T02:45:57;7.68;69.46
75380;HTU21D;65641;44.714;37.756;2023-03-14T02:47:05;7.68;69.45
75380;HTU21D;65641;44.714;37.756;2023-03-14T02:48:21;7.69;69.42
75380;HTU21D;65641;44.714;37.756;2023-03-14T02:49:26;7.69;69.38
75380;HTU21D;65641;44.714;37.756;2023-03-14T02:50:33;7.68;69.36
75380;HTU21D;65641;44.714;37.756;2023-03-14T02:51:40;7.67;69.37
75380;HTU21D;65641;44.714;37.756;2023-03-14T02:52:46;7.69;69.41
75380;HTU21D;65641;44.714;37.756;2023-03-14T02:53:51;7.69;69.44
75380;HTU21D;65641;44.714;37.756;2023-03-14T02:54:58;7.69;69.55
75380;HTU21D;65641;44.714;37.756;2023-03-14T02:56:03;7.70;69.57
75380;HTU21D;65641;44.714;37.756;2023-03-14T02:57:09;7.70;69.55
75380;HTU21D;65641;44.714;37.756;2023-03-14T02:58:13;7.70;69.57
75380;HTU21D;65641;44.714;37.756;2023-03-14T02:59:19;7.70;69.66
75380;HTU21D;65641;44.714;37.756;2023-03-14T03:00:28;7.71;69.86
75380;HTU21D;65641;44.714;37.756;2023-03-14T03:01:37;7.72;69.86
75380;HTU21D;65641;44.714;37.756;2023-03-14T03:02:43;7.73;69.81
75380;HTU21D;65641;44.714;37.756;2023-03-14T03:03:49;7.73;69.78
75380;HTU21D;65641;44.714;37.756;2023-03-14T03:04:54;7.72;69.76
75380;HTU21D;65641;44.714;37.756;2023-03-14T03:05:58;7.72;69.74
75380;HTU21D;65641;44.714;37.756;2023-03-14T03:07:03;7.74;69.68
75380;HTU21D;65641;44.714;37.756;2023-03-14T03:08:08;7.73;69.68
75380;HTU21D;65641;44.714;37.756;2023-03-14T03:09:13;7.73;69.68
75380;HTU21D;65641;44.714;37.756;2023-03-14T03:10:17;7.73;69.68
75380;HTU21D;65641;44.714;37.756;2023-03-14T03:11:22;7.73;69.68
75380;HTU21D;65641;44.714;37.756;2023-03-14T03:12:27;7.74;69.68
75380;HTU21D;65641;44.714;37.756;2023-03-14T03:13:30;7.75;69.66
75380;HTU21D;65641;44.714;37.756;2023-03-14T03:14:36;7.76;69.62
75380;HTU21D;65641;44.714;37.756;2023-03-14T03:15:40;7.75;69.60
75380;HTU21D;65641;44.714;37.756;2023-03-14T03:16:45;7.75;69.63
75380;HTU21D;65641;44.714;37.756;2023-03-14T03:17:49;7.75;69.64
75380;HTU21D;65641;44.714;37.756;2023-03-14T03:18:52;7.76;69.64
75380;HTU21D;65641;44.714;37.756;2023-03-14T03:19:55;7.76;69.61
75380;HTU21D;65641;44.714;37.756;2023-03-14T03:21:02;7.76;69.58
75380;HTU21D;65641;44.714;37.756;2023-03-14T03:22:07;7.77;69.61
75380;HTU21D;65641;44.714;37.756;2023-03-14T03:23:11;7.77;69.62
75380;HTU21D;65641;44.714;37.756;2023-03-14T03:24:14;7.77;69.63
75380;HTU21D;65641;44.714;37.756;2023-03-14T03:25:19;7.78;69.65
75380;HTU21D;65641;44.714;37.756;2023-03-14T03:26:25;7.79;69.61
75380;HTU21D;65641;44.714;37.756;2023-03-14T03:27:31;7.79;69.63
75380;HTU21D;65641;44.714;37.756;2023-03-14T03:28:36;7.79;69.67
75380;HTU21D;65641;44.714;37.756;2023-03-14T03:29:40;7.78;69.68
75380;HTU21D;65641;44.714;37.756;2023-03-14T03:30:45;7.79;69.69
75380;HTU21D;65641;44.714;37.756;2023-03-14T03:31:48;7.79;69.71
75380;HTU21D;65641;44.714;37.756;2023-03-14T03:32:54;7.82;69.71
75380;HTU21D;65641;44.714;37.756;2023-03-14T03:33:58;7.83;69.71
75380;HTU21D;65641;44.714;37.756;2023-03-14T03:35:04;7.82;69.75
75380;HTU21D;65641;44.714;37.756;2023-03-14T03:36:11;7.84;69.74
75380;HTU21D;65641;44.714;37.756;2023-03-14T03:37:15;7.83;69.75
75380;HTU21D;65641;44.714;37.756;2023-03-14T03:38:19;7.83;69.76
75380;HTU21D;65641;44.714;37.756;2023-03-14T03:39:27;7.84;69.76
75380;HTU21D;65641;44.714;37.756;2023-03-14T03:40:32;7.84;69.76
75380;HTU21D;65641;44.714;37.756;2023-03-14T03:41:36;7.84;69.78
75380;HTU21D;65641;44.714;37.756;2023-03-14T03:42:40;7.84;69.78
75380;HTU21D;65641;44.714;37.756;2023-03-14T03:43:46;7.85;69.76
75380;HTU21D;65641;44.714;37.756;2023-03-14T03:44:51;7.84;69.78
75380;HTU21D;65641;44.714;37.756;2023-03-14T03:45:56;7.85;69.81
75380;HTU21D;65641;44.714;37.756;2023-03-14T03:47:01;7.86;69.80
75380;HTU21D;65641;44.714;37.756;2023-03-14T03:48:05;7.87;69.78
75380;HTU21D;65641;44.714;37.756;2023-03-14T03:49:10;7.86;69.77
75380;HTU21D;65641;44.714;37.756;2023-03-14T03:50:15;7.87;69.78
75380;HTU21D;65641;44.714;37.756;2023-03-14T03:51:23;7.87;69.79
75380;HTU21D;65641;44.714;37.756;2023-03-14T03:52:28;7.87;69.78
75380;HTU21D;65641;44.714;37.756;2023-03-14T03:53:31;7.88;69.80
75380;HTU21D;65641;44.714;37.756;2023-03-14T03:54:41;7.89;69.84
75380;HTU21D;65641;44.714;37.756;2023-03-14T03:55:45;7.87;69.87
75380;HTU21D;65641;44.714;37.756;2023-03-14T03:56:50;7.89;69.90
75380;HTU21D;65641;44.714;37.756;2023-03-14T03:57:55;7.90;69.94
75380;HTU21D;65641;44.714;37.756;2023-03-14T03:58:59;7.91;69.95
75380;HTU21D;65641;44.714;37.756;2023-03-14T04:00:05;7.91;69.97
75380;HTU21D;65641;44.714;37.756;2023-03-14T04:01:16;7.92;69.96
75380;HTU21D;65641;44.714;37.756;2023-03-14T04:02:26;7.93;69.95
75380;HTU21D;65641;44.714;37.756;2023-03-14T04:03:31;7.96;69.94
75380;HTU21D;65641;44.714;37.756;2023-03-14T04:04:34;7.96;69.94
75380;HTU21D;65641;44.714;37.756;2023-03-14T04:05:38;7.98;69.96
75380;HTU21D;65641;44.714;37.756;2023-03-14T04:06:44;7.98;69.97
75380;HTU21D;65641;44.714;37.756;2023-03-14T04:07:47;8.00;69.94
75380;HTU21D;65641;44.714;37.756;2023-03-14T04:08:57;8.00;69.91
75380;HTU21D;65641;44.714;37.756;2023-03-14T04:10:16;8.01;69.90
75380;HTU21D;65641;44.714;37.756;2023-03-14T04:11:34;8.02;69.87
75380;HTU21D;65641;44.714;37.756;2023-03-14T04:12:46;8.04;69.87
75380;HTU21D;65641;44.714;37.756;2023-03-14T04:13:54;8.05;69.83
75380;HTU21D;65641;44.714;37.756;2023-03-14T04:14:59;8.06;69.78
75380;HTU21D;65641;44.714;37.756;2023-03-14T04:16:15;8.08;69.73
75380;HTU21D;65641;44.714;37.756;2023-03-14T04:17:21;8.08;69.66
75380;HTU21D;65641;44.714;37.756;2023-03-14T04:18:24;8.11;69.64
75380;HTU21D;65641;44.714;37.756;2023-03-14T04:19:31;8.12;69.58
75380;HTU21D;65641;44.714;37.756;2023-03-14T04:20:36;8.15;69.53
75380;HTU21D;65641;44.714;37.756;2023-03-14T04:21:41;8.15;69.45
75380;HTU21D;65641;44.714;37.756;2023-03-14T04:22:50;8.15;69.32
75380;HTU21D;65641;44.714;37.756;2023-03-14T04:23:55;8.17;69.23
75380;HTU21D;65641;44.714;37.756;2023-03-14T04:24:59;8.17;69.20
75380;HTU21D;65641;44.714;37.756;2023-03-14T04:26:10;8.17;69.13
75380;HTU21D;65641;44.714;37.756;2023-03-14T04:27:14;8.18;69.07
75380;HTU21D;65641;44.714;37.756;2023-03-14T04:28:19;8.19;69.04
75380;HTU21D;65641;44.714;37.756;2023-03-14T04:29:23;8.21;69.03
75380;HTU21D;65641;44.714;37.756;2023-03-14T04:30:26;8.21;69.00
75380;HTU21D;65641;44.714;37.756;2023-03-14T04:31:55;8.22;68.94
75380;HTU21D;65641;44.714;37.756;2023-03-14T04:33:00;8.24;68.91
75380;HTU21D;65641;44.714;37.756;2023-03-14T04:34:05;8.23;68.86
75380;HTU21D;65641;44.714;37.756;2023-03-14T04:35:14;8.24;68.84
75380;HTU21D;65641;44.714;37.756;2023-03-14T04:36:19;8.26;68.81
75380;HTU21D;65641;44.714;37.756;2023-03-14T04:37:24;8.26;68.81
75380;HTU21D;65641;44.714;37.756;2023-03-14T04:38:27;8.26;68.78
75380;HTU21D;65641;44.714;37.756;2023-03-14T04:39:31;8.27;68.78
75380;HTU21D;65641;44.714;37.756;2023-03-14T04:40:59;8.27;68.78
75380;HTU21D;65641;44.714;37.756;2023-03-14T04:42:06;8.28;68.84
75380;HTU21D;65641;44.714;37.756;2023-03-14T04:43:12;8.29;68.87
75380;HTU21D;65641;44.714;37.756;2023-03-14T04:44:22;8.30;68.94
75380;HTU21D;65641;44.714;37.756;2023-03-14T04:45:27;8.30;69.00
75380;HTU21D;65641;44.714;37.756;2023-03-14T04:46:33;8.32;69.07
75380;HTU21D;65641;44.714;37.756;2023-03-14T04:47:43;8.33;69.13
75380;HTU21D;65641;44.714;37.756;2023-03-14T04:48:50;8.36;69.14
75380;HTU21D;65641;44.714;37.756;2023-03-14T04:49:54;8.37;69.16
75380;HTU21D;65641;44.714;37.756;2023-03-14T04:50:59;8.39;69.22
75380;HTU21D;65641;44.714;37.756;2023-03-14T04:52:07;8.43;69.29
75380;HTU21D;65641;44.714;37.756;2023-03-14T04:53:11;8.46;69.38
75380;HTU21D;65641;44.714;37.756;2023-03-14T04:54:17;8.49;69.37
75380;HTU21D;65641;44.714;37.756;2023-03-14T04:55:24;8.52;69.36
75380;HTU21D;65641;44.714;37.756;2023-03-14T04:56:30;8.55;69.32
75380;HTU21D;65641;44.714;37.756;2023-03-14T04:57:35;8.59;69.30
75380;HTU21D;65641;44.714;37.756;2023-03-14T04:58:38;8.64;69.19
75380;HTU21D;65641;44.714;37.756;2023-03-14T04:59:43;8.67;69.16
75380;HTU21D;65641;44.714;37.756;2023-03-14T05:01:04;8.72;69.04
75380;HTU21D;65641;44.714;37.756;2023-03-14T05:02:20;8.77;68.85
75380;HTU21D;65641;44.714;37.756;2023-03-14T05:03:37;8.81;68.71
75380;HTU21D;65641;44.714;37.756;2023-03-14T05:04:46;8.86;68.54
75380;HTU21D;65641;44.714;37.756;2023-03-14T05:06:09;8.89;68.33
75380;HTU21D;65641;44.714;37.756;2023-03-14T05:07:27;8.93;68.21
75380;HTU21D;65641;44.714;37.756;2023-03-14T05:08:42;8.96;68.10
75380;HTU21D;65641;44.714;37.756;2023-03-14T05:09:59;9.00;68.02
75380;HTU21D;65641;44.714;37.756;2023-03-14T05:11:25;9.03;67.83
75380;HTU21D;65641;44.714;37.756;2023-03-14T05:12:34;9.04;67.74
75380;HTU21D;65641;44.714;37.756;2023-03-14T05:13:56;9.07;67.62
75380;HTU21D;65641;44.714;37.756;2023-03-14T05:15:09;9.09;67.53
75380;HTU21D;65641;44.714;37.756;2023-03-14T05:16:30;9.10;67.46
75380;HTU21D;65641;44.714;37.756;2023-03-14T05:17:52;9.12;67.44
75380;HTU21D;65641;44.714;37.756;2023-03-14T05:19:21;9.15;67.36
75380;HTU21D;65641;44.714;37.756;2023-03-14T05:20:39;9.17;67.30
75380;HTU21D;65641;44.714;37.756;2023-03-14T05:21:59;9.18;67.23
75380;HTU21D;65641;44.714;37.756;2023-03-14T05:23:27;9.21;67.17
75380;HTU21D;65641;44.714;37.756;2023-03-14T05:24:49;9.22;67.11
75380;HTU21D;65641;44.714;37.756;2023-03-14T05:26:15;9.24;67.04
75380;HTU21D;65641;44.714;37.756;2023-03-14T05:27:48;9.24;67.00
75380;HTU21D;65641;44.714;37.756;2023-03-14T05:29:16;9.24;66.91
75380;HTU21D;65641;44.714;37.756;2023-03-14T05:30:50;9.24;66.88
75380;HTU21D;65641;44.714;37.756;2023-03-14T05:32:12;9.26;66.84
75380;HTU21D;65641;44.714;37.756;2023-03-14T05:33:26;9.26;66.84
75380;HTU21D;65641;44.714;37.756;2023-03-14T05:34:43;9.24;66.77
75380;HTU21D;65641;44.714;37.756;2023-03-14T05:36:04;9.25;66.76
75380;HTU21D;65641;44.714;37.756;2023-03-14T05:37:27;9.24;66.78
75380;HTU21D;65641;44.714;37.756;2023-03-14T05:38:49;9.24;66.81
75380;HTU21D;65641;44.714;37.756;2023-03-14T05:40:12;9.23;66.82
75380;HTU21D;65641;44.714;37.756;2023-03-14T05:41:31;9.23;66.89
75380;HTU21D;65641;44.714;37.756;2023-03-14T05:42:53;9.23;66.99
75380;HTU21D;65641;44.714;37.756;2023-03-14T05:44:25;9.23;67.12
75380;HTU21D;65641;44.714;37.756;2023-03-14T05:45:49;9.24;67.21
75380;HTU21D;65641;44.714;37.756;2023-03-14T05:47:05;9.24;67.27
75380;HTU21D;65641;44.714;37.756;2023-03-14T05:48:28;9.27;67.35
75380;HTU21D;65641;44.714;37.756;2023-03-14T05:49:52;9.27;67.36
75380;HTU21D;65641;44.714;37.756;2023-03-14T05:51:07;9.31;67.35
75380;HTU21D;65641;44.714;37.756;2023-03-14T05:52:22;9.31;67.36
75380;HTU21D;65641;44.714;37.756;2023-03-14T05:53:37;9.32;67.39
75380;HTU21D;65641;44.714;37.756;2023-03-14T05:55:11;9.35;67.39
75380;HTU21D;65641;44.714;37.756;2023-03-14T05:56:29;9.37;67.33
75380;HTU21D;65641;44.714;37.756;2023-03-14T05:57:41;9.38;67.33
75380;HTU21D;65641;44.714;37.756;2023-03-14T05:58:46;9.40;67.24
75380;HTU21D;65641;44.714;37.756;2023-03-14T06:00:08;9.41;67.16
75380;HTU21D;65641;44.714;37.756;2023-03-14T06:01:27;9.45;67.07
75380;HTU21D;65641;44.714;37.756;2023-03-14T06:02:42;9.45;67.02
75380;HTU21D;65641;44.714;37.756;2023-03-14T06:03:56;9.48;66.94
75380;HTU21D;65641;44.714;37.756;2023-03-14T06:04:59;9.49;66.90
75380;HTU21D;65641;44.714;37.756;2023-03-14T06:06:04;9.49;66.85
75380;HTU21D;65641;44.714;37.756;2023-03-14T06:07:07;9.50;66.81
75380;HTU21D;65641;44.714;37.756;2023-03-14T06:08:10;9.51;66.79
75380;HTU21D;65641;44.714;37.756;2023-03-14T06:09:14;9.51;66.78
75380;HTU21D;65641;44.714;37.756;2023-03-14T06:10:18;9.53;66.78
75380;HTU21D;65641;44.714;37.756;2023-03-14T06:11:21;9.54;66.78
75380;HTU21D;65641;44.714;37.756;2023-03-14T06:12:25;9.54;66.78
75380;HTU21D;65641;44.714;37.756;2023-03-14T06:13:28;9.57;66.82
75380;HTU21D;65641;44.714;37.756;2023-03-14T06:14:31;9.60;66.85
75380;HTU21D;65641;44.714;37.756;2023-03-14T06:15:34;9.61;66.90
75380;HTU21D;65641;44.714;37.756;2023-03-14T06:16:40;9.63;66.96
75380;HTU21D;65641;44.714;37.756;2023-03-14T06:17:44;9.65;66.96
75380;HTU21D;65641;44.714;37.756;2023-03-14T06:18:48;9.68;66.91
75380;HTU21D;65641;44.714;37.756;2023-03-14T06:19:57;9.70;66.82
75380;HTU21D;65641;44.714;37.756;2023-03-14T06:21:00;9.72;66.77
75380;HTU21D;65641;44.714;37.756;2023-03-14T06:22:04;9.75;66.84
75380;HTU21D;65641;44.714;37.756;2023-03-14T06:23:09;9.79;66.82
75380;HTU21D;65641;44.714;37.756;2023-03-14T06:24:12;9.80;66.83
75380;HTU21D;65641;44.714;37.756;2023-03-14T06:25:20;9.85;66.91
75380;HTU21D;65641;44.714;37.756;2023-03-14T06:26:23;9.86;66.92
75380;HTU21D;65641;44.714;37.756;2023-03-14T06:27:27;9.92;66.83
75380;HTU21D;65641;44.714;37.756;2023-03-14T06:28:33;9.94;66.72
75380;HTU21D;65641;44.714;37.756;2023-03-14T06:29:38;9.99;66.61
75380;HTU21D;65641;44.714;37.756;2023-03-14T06:30:43;10.03;66.56
75380;HTU21D;65641;44.714;37.756;2023-03-14T06:31:47;10.06;66.42
75380;HTU21D;65641;44.714;37.756;2023-03-14T06:32:54;10.10;66.30
75380;HTU21D;65641;44.714;37.756;2023-03-14T06:33:58;10.13;66.28
75380;HTU21D;65641;44.714;37.756;2023-03-14T06:35:06;10.16;66.12
75380;HTU21D;65641;44.714;37.756;2023-03-14T06:36:12;10.20;65.98
75380;HTU21D;65641;44.714;37.756;2023-03-14T06:37:19;10.22;65.88
75380;HTU21D;65641;44.714;37.756;2023-03-14T06:38:23;10.26;65.69
75380;HTU21D;65641;44.714;37.756;2023-03-14T06:39:30;10.27;65.63
75380;HTU21D;65641;44.714;37.756;2023-03-14T06:40:40;10.30;65.51
75380;HTU21D;65641;44.714;37.756;2023-03-14T06:41:47;10.31;65.43
75380;HTU21D;65641;44.714;37.756;2023-03-14T06:42:51;10.34;65.33
75380;HTU21D;65641;44.714;37.756;2023-03-14T06:43:56;10.34;65.25
75380;HTU21D;65641;44.714;37.756;2023-03-14T06:44:59;10.36;65.18
75380;HTU21D;65641;44.714;37.756;2023-03-14T06:46:04;10.36;65.08
75380;HTU21D;65641;44.714;37.756;2023-03-14T06:47:08;10.38;65.04
75380;HTU21D;65641;44.714;37.756;2023-03-14T06:48:15;10.38;65.01
75380;HTU21D;65641;44.714;37.756;2023-03-14T06:49:23;10.39;64.99
75380;HTU21D;65641;44.714;37.756;2023-03-14T06:50:29;10.40;64.99
75380;HTU21D;65641;44.714;37.756;2023-03-14T06:51:34;10.41;65.04
75380;HTU21D;65641;44.714;37.756;2023-03-14T06:52:39;10.41;65.04
75380;HTU21D;65641;44.714;37.756;2023-03-14T06:53:55;10.42;65.09
75380;HTU21D;65641;44.714;37.756;2023-03-14T06:55:01;10.43;65.15
75380;HTU21D;65641;44.714;37.756;2023-03-14T06:56:06;10.43;65.17
75380;HTU21D;65641;44.714;37.756;2023-03-14T06:57:09;10.45;65.24
75380;HTU21D;65641;44.714;37.756;2023-03-14T06:58:12;10.48;65.29
75380;HTU21D;65641;44.714;37.756;2023-03-14T06:59:18;10.48;65.29
75380;HTU21D;65641;44.714;37.756;2023-03-14T07:00:23;10.50;65.27
75380;HTU21D;65641;44.714;37.756;2023-03-14T07:01:30;10.50;65.26
75380;HTU21D;65641;44.714;37.756;2023-03-14T07:02:44;10.52;65.28
75380;HTU21D;65641;44.714;37.756;2023-03-14T07:04:10;10.53;65.28
75380;HTU21D;65641;44.714;37.756;2023-03-14T07:05:17;10.56;65.27
75380;HTU21D;65641;44.714;37.756;2023-03-14T07:06:22;10.58;65.24
75380;HTU21D;65641;44.714;37.756;2023-03-14T07:07:28;10.59;65.23
75380;HTU21D;65641;44.714;37.756;2023-03-14T07:08:31;10.60;65.24
75380;HTU21D;65641;44.714;37.756;2023-03-14T07:09:36;10.63;65.23
75380;HTU21D;65641;44.714;37.756;2023-03-14T07:10:39;10.64;65.13
75380;HTU21D;65641;44.714;37.756;2023-03-14T07:11:43;10.65;65.04
75380;HTU21D;65641;44.714;37.756;2023-03-14T07:12:46;10.68;64.98
75380;HTU21D;65641;44.714;37.756;2023-03-14T07:13:49;10.67;64.92
75380;HTU21D;65641;44.714;37.756;2023-03-14T07:14:52;10.70;64.92
75380;HTU21D;65641;44.714;37.756;2023-03-14T07:15:55;10.70;64.91
75380;HTU21D;65641;44.714;37.756;2023-03-14T07:17:00;10.70;64.90
75380;HTU21D;65641;44.714;37.756;2023-03-14T07:18:03;10.70;64.86
75380;HTU21D;65641;44.714;37.756;2023-03-14T07:19:06;10.72;64.85
75380;HTU21D;65641;44.714;37.756;2023-03-14T07:20:10;10.73;64.85
75380;HTU21D;65641;44.714;37.756;2023-03-14T07:21:13;10.74;64.87
75380;HTU21D;65641;44.714;37.756;2023-03-14T07:22:16;10.73;64.88
75380;HTU21D;65641;44.714;37.756;2023-03-14T07:23:19;10.74;64.90
75380;HTU21D;65641;44.714;37.756;2023-03-14T07:24:24;10.75;64.95